Terminal Aerodrome Forecast
Issued by NWS

Home | Current Version | Previous Version | Text Only | Print | Product List | Glossary On
Versions: 1 2 3 4 5 6 7 8 9 10 11 12 13 14 15 16 17 18 19 20 21
388
FTUS41 KPBZ 110520
TAFBVI
TAF
KBVI 110520Z 1106/1206 26009G14KT 6SM -SHSN BKN016 BKN023 OVC030
      TEMPO 1107/1110 1 1/2SM -SHSN OVC012
     FM111200 29010G20KT 6SM -SHSN OVC025
     FM111400 30012G20KT P6SM BKN030=

USA.gov is the U.S. government's official web portal to all federal, state and local government web resources and services.